EST,Max TemperatureF,Mean TemperatureF,Min TemperatureF,Max Dew PointF,MeanDew PointF,Min DewpointF,Max Humidity, Mean Humidity, Min Humidity, Max Sea Level PressureIn, Mean Sea Level PressureIn, Min Sea Level PressureIn, Max VisibilityMiles, Mean VisibilityMiles, Min VisibilityMiles, Max Wind SpeedMPH, Mean Wind SpeedMPH, Max Gust SpeedMPH,PrecipitationIn, CloudCover, Events, WindDirDegrees
2013-12-1,57,43,28,35,31,25,85,63,40,30.31,30.18,30.00,10,9,5,10,2,13,0.00,3,,219
2013-12-2,50,48,46,44,41,36,86,74,61,29.98,29.89,29.81,10,9,3,6,1,7,0.04,8,Rain,267
2013-12-3,57,52,47,50,47,44,93,85,77,29.88,29.85,29.83,10,4,1,9,2,18,0.08,8,Rain,39
2013-12-4,74,62,49,56,51,46,93,73,53,29.96,29.91,29.86,10,8,3,25,6,31,T,7,,191
2013-12-5,76,69,62,64,60,55,87,74,60,30.00,29.95,29.90,10,10,9,22,9,26,0.04,7,Rain,231
2013-12-6,70,55,40,63,45,36,93,87,81,30.19,30.02,29.88,10,6,1,17,7,22,1.95,8,Rain-Thunderstorm,358
2013-12-7,42,40,37,36,34,32,92,83,73,30.41,30.35,30.22,10,6,1,18,12,22,T,8,Rain,15
2013-12-8,45,41,37,43,38,32,92,86,79,30.33,30.18,30.09,10,6,2,15,4,17,0.77,8,Rain,23
2013-12-9,52,47,42,48,44,39,93,88,82,30.15,30.10,30.01,10,5,1,9,4,13,0.87,8,Rain,226
2013-12-10,43,36,28,38,32,24,86,73,60,30.38,30.18,30.01,10,6,1,15,4,17,0.51,6,Rain,322
2013-12-11,48,36,24,29,26,21,92,69,45,30.47,30.41,30.35,10,7,1,9,3,23,0.00,3,,295
2013-12-12,40,33,26,23,18,12,75,54,33,30.55,30.47,30.41,10,10,10,10,3,15,0.00,0,,7
2013-12-13,47,35,22,25,21,17,88,61,34,30.43,30.31,30.14,10,10,9,10,2,13,0.00,5,,35
2013-12-14,51,44,37,49,38,25,96,73,49,30.15,29.91,29.80,10,6,2,17,6,22,0.50,8,Rain,296
2013-12-15,46,38,29,39,31,25,86,78,70,30.21,30.07,29.87,10,10,8,22,9,26,0.00,8,,267
2013-12-16,51,39,26,32,29,23,92,69,46,30.25,30.19,30.11,10,9,7,18,9,23,0.00,3,,229
2013-12-17,56,46,36,36,30,22,75,59,43,30.23,30.12,30.01,10,10,10,23,13,29,0.00,3,,243
2013-12-18,47,37,27,26,20,16,85,58,31,30.36,30.30,30.25,10,10,10,10,3,15,0.00,1,,255
2013-12-19,58,42,26,29,25,21,84,57,30,30.33,30.24,30.15,10,10,10,6,1,7,0.00,5,,80
2013-12-20,59,46,32,45,34,28,82,61,40,30.18,30.13,30.06,10,10,10,7,2,9,T,7,Rain,21
2013-12-21,75,62,49,62,51,41,80,67,54,30.04,29.91,29.78,10,10,10,29,11,38,0.01,8,Rain,129
2013-12-22,73,64,55,62,56,53,93,79,64,30.05,29.93,29.77,10,8,1,35,10,47,1.78,8,Rain,228
2013-12-23,55,45,35,54,40,26,93,82,70,30.35,30.20,30.02,10,8,2,16,8,20,0.13,8,Rain,332
2013-12-24,36,30,23,27,20,14,75,58,40,30.48,30.43,30.35,10,10,10,14,6,17,0.00,5,,342
2013-12-25,43,32,20,24,19,14,77,61,45,30.48,30.40,30.33,10,10,10,8,2,10,0.00,1,,45
2013-12-26,48,37,26,27,25,22,78,59,39,30.41,30.36,30.32,10,10,10,13,3,16,0.00,2,,220
2013-12-27,52,38,24,29,24,21,92,62,32,30.49,30.42,30.37,10,10,8,6,1,7,0.00,3,,39
2013-12-28,41,34,26,37,30,23,92,76,60,30.41,30.27,29.97,10,8,2,10,3,13,0.58,8,Rain,42
2013-12-29,48,44,39,44,41,38,100,90,80,30.05,29.94,29.87,10,7,2,17,7,20,0.97,7,Rain,227
2013-12-30,43,40,36,41,34,28,96,83,70,30.23,30.14,30.04,10,9,4,12,4,14,T,8,Rain,297
2013-12-31,42,35,28,30,25,21,92,69,45,30.47,30.36,30.23,10,10,7,15,4,18,0.00,4,,243